sensor_id;sensor_type;location;lat;lon;timestamp;temperature;humidity
38380;DHT22;38377;47.418;18.882;2023-04-03T00:01:13;5.30;98.10
38380;DHT22;38377;47.418;18.882;2023-04-03T00:03:40;5.30;97.90
38380;DHT22;38377;47.418;18.882;2023-04-03T00:06:07;5.20;97.80
38380;DHT22;38377;47.418;18.882;2023-04-03T00:08:34;5.20;97.60
38380;DHT22;38377;47.418;18.882;2023-04-03T00:11:01;5.20;97.40
38380;DHT22;38377;47.418;18.882;2023-04-03T00:13:26;5.20;97.40
38380;DHT22;38377;47.418;18.882;2023-04-03T00:15:53;5.20;97.60
38380;DHT22;38377;47.418;18.882;2023-04-03T00:18:19;5.20;97.00
38380;DHT22;38377;47.418;18.882;2023-04-03T00:20:45;5.10;97.20
38380;DHT22;38377;47.418;18.882;2023-04-03T00:23:11;5.10;97.30
38380;DHT22;38377;47.418;18.882;2023-04-03T00:25:36;5.10;97.10
38380;DHT22;38377;47.418;18.882;2023-04-03T00:28:03;5.10;97.50
38380;DHT22;38377;47.418;18.882;2023-04-03T00:30:30;5.10;97.50
38380;DHT22;38377;47.418;18.882;2023-04-03T00:32:56;5.10;97.20
38380;DHT22;38377;47.418;18.882;2023-04-03T00:35:22;5.10;97.10
38380;DHT22;38377;47.418;18.882;2023-04-03T00:37:51;5.10;97.10
38380;DHT22;38377;47.418;18.882;2023-04-03T00:40:17;5.10;97.70
38380;DHT22;38377;47.418;18.882;2023-04-03T00:42:44;5.10;97.40
38380;DHT22;38377;47.418;18.882;2023-04-03T00:47:37;5.10;97.20
38380;DHT22;38377;47.418;18.882;2023-04-03T00:50:04;5.10;97.50
38380;DHT22;38377;47.418;18.882;2023-04-03T00:52:31;5.10;97.30
38380;DHT22;38377;47.418;18.882;2023-04-03T00:55:01;5.10;96.80
38380;DHT22;38377;47.418;18.882;2023-04-03T00:57:28;5.10;97.00
38380;DHT22;38377;47.418;18.882;2023-04-03T00:59:59;5.10;96.90
38380;DHT22;38377;47.418;18.882;2023-04-03T01:02:27;5.10;97.00
38380;DHT22;38377;47.418;18.882;2023-04-03T01:04:52;5.10;97.00
38380;DHT22;38377;47.418;18.882;2023-04-03T01:07:23;5.10;97.20
38380;DHT22;38377;47.418;18.882;2023-04-03T01:09:49;5.00;97.10
38380;DHT22;38377;47.418;18.882;2023-04-03T01:12:26;5.00;96.70
38380;DHT22;38377;47.418;18.882;2023-04-03T01:14:57;5.00;97.00
38380;DHT22;38377;47.418;18.882;2023-04-03T01:25:44;5.00;96.70
38380;DHT22;38377;47.418;18.882;2023-04-03T01:28:33;4.90;96.50
38380;DHT22;38377;47.418;18.882;2023-04-03T01:31:00;5.00;97.00
38380;DHT22;38377;47.418;18.882;2023-04-03T01:33:28;5.00;96.80
38380;DHT22;38377;47.418;18.882;2023-04-03T01:35:54;4.90;96.70
38380;DHT22;38377;47.418;18.882;2023-04-03T01:38:19;4.90;96.90
38380;DHT22;38377;47.418;18.882;2023-04-03T01:40:46;4.80;96.70
38380;DHT22;38377;47.418;18.882;2023-04-03T01:43:11;4.90;96.90
38380;DHT22;38377;47.418;18.882;2023-04-03T01:45:37;4.80;97.20
38380;DHT22;38377;47.418;18.882;2023-04-03T01:48:03;4.80;96.90
38380;DHT22;38377;47.418;18.882;2023-04-03T01:50:29;4.80;97.20
38380;DHT22;38377;47.418;18.882;2023-04-03T01:52:55;4.80;97.20
38380;DHT22;38377;47.418;18.882;2023-04-03T01:55:20;4.80;97.10
38380;DHT22;38377;47.418;18.882;2023-04-03T01:57:46;4.80;97.30
38380;DHT22;38377;47.418;18.882;2023-04-03T02:00:12;4.80;97.20
38380;DHT22;38377;47.418;18.882;2023-04-03T02:02:38;4.80;97.00
38380;DHT22;38377;47.418;18.882;2023-04-03T02:05:04;4.80;97.10
38380;DHT22;38377;47.418;18.882;2023-04-03T02:07:30;4.70;97.30
38380;DHT22;38377;47.418;18.882;2023-04-03T02:09:55;4.70;97.20
38380;DHT22;38377;47.418;18.882;2023-04-03T02:12:21;4.70;97.90
38380;DHT22;38377;47.418;18.882;2023-04-03T02:14:47;4.70;97.40
38380;DHT22;38377;47.418;18.882;2023-04-03T02:17:12;4.70;97.60
38380;DHT22;38377;47.418;18.882;2023-04-03T02:19:38;4.70;97.60
38380;DHT22;38377;47.418;18.882;2023-04-03T02:22:04;4.60;97.70
38380;DHT22;38377;47.418;18.882;2023-04-03T02:24:31;4.60;98.00
38380;DHT22;38377;47.418;18.882;2023-04-03T02:26:57;4.50;98.30
38380;DHT22;38377;47.418;18.882;2023-04-03T02:29:22;4.50;98.00
38380;DHT22;38377;47.418;18.882;2023-04-03T02:31:49;4.50;98.20
38380;DHT22;38377;47.418;18.882;2023-04-03T02:34:15;4.40;98.20
38380;DHT22;38377;47.418;18.882;2023-04-03T02:36:40;4.40;98.40
38380;DHT22;38377;47.418;18.882;2023-04-03T02:39:06;4.40;98.70
38380;DHT22;38377;47.418;18.882;2023-04-03T02:41:32;4.40;98.80
38380;DHT22;38377;47.418;18.882;2023-04-03T02:44:06;4.40;99.20
38380;DHT22;38377;47.418;18.882;2023-04-03T02:46:33;4.30;99.00
38380;DHT22;38377;47.418;18.882;2023-04-03T02:48:58;4.30;98.90
38380;DHT22;38377;47.418;18.882;2023-04-03T02:51:24;4.20;98.90
38380;DHT22;38377;47.418;18.882;2023-04-03T02:53:50;4.20;99.20
38380;DHT22;38377;47.418;18.882;2023-04-03T02:56:17;4.20;99.30
38380;DHT22;38377;47.418;18.882;2023-04-03T02:58:43;4.10;99.70
38380;DHT22;38377;47.418;18.882;2023-04-03T03:01:10;4.10;99.60
38380;DHT22;38377;47.418;18.882;2023-04-03T03:03:36;4.10;99.40
38380;DHT22;38377;47.418;18.882;2023-04-03T03:06:07;4.10;99.40
38380;DHT22;38377;47.418;18.882;2023-04-03T03:08:34;4.10;99.80
38380;DHT22;38377;47.418;18.882;2023-04-03T03:11:01;4.00;99.90
38380;DHT22;38377;47.418;18.882;2023-04-03T03:13:27;4.00;99.90
38380;DHT22;38377;47.418;18.882;2023-04-03T03:15:52;4.00;99.90
38380;DHT22;38377;47.418;18.882;2023-04-03T03:18:18;4.00;99.90
38380;DHT22;38377;47.418;18.882;2023-04-03T03:20:44;4.00;99.90
38380;DHT22;38377;47.418;18.882;2023-04-03T03:23:10;3.90;99.90
38380;DHT22;38377;47.418;18.882;2023-04-03T03:25:40;3.90;99.90
38380;DHT22;38377;47.418;18.882;2023-04-03T03:28:06;3.90;99.90
38380;DHT22;38377;47.418;18.882;2023-04-03T03:30:32;3.90;99.90
38380;DHT22;38377;47.418;18.882;2023-04-03T03:32:57;3.90;99.90
38380;DHT22;38377;47.418;18.882;2023-04-03T03:35:23;3.80;99.90
38380;DHT22;38377;47.418;18.882;2023-04-03T03:37:49;3.80;99.90
38380;DHT22;38377;47.418;18.882;2023-04-03T03:40:14;3.80;99.90
38380;DHT22;38377;47.418;18.882;2023-04-03T03:42:40;3.80;99.90
38380;DHT22;38377;47.418;18.882;2023-04-03T03:45:06;3.80;99.90
38380;DHT22;38377;47.418;18.882;2023-04-03T03:47:32;3.70;99.90
38380;DHT22;38377;47.418;18.882;2023-04-03T03:49:58;3.70;99.90
38380;DHT22;38377;47.418;18.882;2023-04-03T03:52:24;3.70;99.90
38380;DHT22;38377;47.418;18.882;2023-04-03T03:54:50;3.60;99.90
38380;DHT22;38377;47.418;18.882;2023-04-03T03:57:16;3.60;99.90
38380;DHT22;38377;47.418;18.882;2023-04-03T03:59:42;3.50;99.90
38380;DHT22;38377;47.418;18.882;2023-04-03T04:02:09;3.50;99.90
38380;DHT22;38377;47.418;18.882;2023-04-03T04:04:36;3.50;99.90
38380;DHT22;38377;47.418;18.882;2023-04-03T04:07:03;3.50;99.90
38380;DHT22;38377;47.418;18.882;2023-04-03T04:09:29;3.40;99.90
38380;DHT22;38377;47.418;18.882;2023-04-03T04:11:54;3.40;99.90
38380;DHT22;38377;47.418;18.882;2023-04-03T04:14:20;3.40;99.90
38380;DHT22;38377;47.418;18.882;2023-04-03T04:16:47;3.40;99.90
38380;DHT22;38377;47.418;18.882;2023-04-03T04:19:13;3.30;99.90
38380;DHT22;38377;47.418;18.882;2023-04-03T04:21:39;3.30;99.90
38380;DHT22;38377;47.418;18.882;2023-04-03T04:24:05;3.30;99.90
38380;DHT22;38377;47.418;18.882;2023-04-03T04:26:31;3.30;99.90
38380;DHT22;38377;47.418;18.882;2023-04-03T04:28:57;3.30;99.90
38380;DHT22;38377;47.418;18.882;2023-04-03T04:31:22;3.30;99.90
38380;DHT22;38377;47.418;18.882;2023-04-03T04:33:48;3.30;99.90
38380;DHT22;38377;47.418;18.882;2023-04-03T04:36:14;3.20;99.90
38380;DHT22;38377;47.418;18.882;2023-04-03T04:38:40;3.20;99.90
38380;DHT22;38377;47.418;18.882;2023-04-03T04:41:06;3.20;99.90
38380;DHT22;38377;47.418;18.882;2023-04-03T04:43:32;3.20;99.90
38380;DHT22;38377;47.418;18.882;2023-04-03T04:46:07;3.20;99.90
38380;DHT22;38377;47.418;18.882;2023-04-03T04:48:34;3.10;99.90
38380;DHT22;38377;47.418;18.882;2023-04-03T04:51:00;3.10;99.90
38380;DHT22;38377;47.418;18.882;2023-04-03T04:53:26;3.10;99.90
38380;DHT22;38377;47.418;18.882;2023-04-03T04:55:52;3.10;99.90
38380;DHT22;38377;47.418;18.882;2023-04-03T04:58:18;3.10;99.90
38380;DHT22;38377;47.418;18.882;2023-04-03T05:00:45;3.10;99.90
38380;DHT22;38377;47.418;18.882;2023-04-03T05:03:11;3.10;99.90
38380;DHT22;38377;47.418;18.882;2023-04-03T05:05:36;3.10;99.90
38380;DHT22;38377;47.418;18.882;2023-04-03T05:08:03;3.10;99.90
38380;DHT22;38377;47.418;18.882;2023-04-03T05:10:29;3.10;99.90
38380;DHT22;38377;47.418;18.882;2023-04-03T05:12:54;3.10;99.90
38380;DHT22;38377;47.418;18.882;2023-04-03T05:17:50;3.10;99.90
38380;DHT22;38377;47.418;18.882;2023-04-03T05:20:16;3.10;99.90
38380;DHT22;38377;47.418;18.882;2023-04-03T05:22:42;3.10;99.90
38380;DHT22;38377;47.418;18.882;2023-04-03T05:25:08;3.20;99.90
38380;DHT22;38377;47.418;18.882;2023-04-03T05:27:34;3.30;99.90
38380;DHT22;38377;47.418;18.882;2023-04-03T05:30:00;3.20;99.90
38380;DHT22;38377;47.418;18.882;2023-04-03T05:32:26;3.30;99.90
38380;DHT22;38377;47.418;18.882;2023-04-03T05:34:53;3.30;99.90
38380;DHT22;38377;47.418;18.882;2023-04-03T05:37:19;3.40;99.90
38380;DHT22;38377;47.418;18.882;2023-04-03T05:39:45;3.40;99.90
38380;DHT22;38377;47.418;18.882;2023-04-03T05:42:11;3.40;99.90
38380;DHT22;38377;47.418;18.882;2023-04-03T05:44:38;3.40;99.90
38380;DHT22;38377;47.418;18.882;2023-04-03T05:47:05;3.40;99.90
38380;DHT22;38377;47.418;18.882;2023-04-03T05:49:33;3.40;99.90
38380;DHT22;38377;47.418;18.882;2023-04-03T05:51:58;3.40;99.90
38380;DHT22;38377;47.418;18.882;2023-04-03T05:54:28;3.50;99.90
38380;DHT22;38377;47.418;18.882;2023-04-03T05:56:55;3.50;99.90
38380;DHT22;38377;47.418;18.882;2023-04-03T05:59:21;3.60;99.90
38380;DHT22;38377;47.418;18.882;2023-04-03T06:01:47;3.70;99.90
38380;DHT22;38377;47.418;18.882;2023-04-03T06:04:13;3.80;99.90
38380;DHT22;38377;47.418;18.882;2023-04-03T06:07:02;3.80;99.90
38380;DHT22;38377;47.418;18.882;2023-04-03T06:09:30;4.00;99.90
38380;DHT22;38377;47.418;18.882;2023-04-03T06:11:56;4.10;99.90
38380;DHT22;38377;47.418;18.882;2023-04-03T06:14:26;4.20;99.90
38380;DHT22;38377;47.418;18.882;2023-04-03T06:16:53;4.40;99.90
38380;DHT22;38377;47.418;18.882;2023-04-03T06:19:19;4.60;99.90
38380;DHT22;38377;47.418;18.882;2023-04-03T06:21:46;4.80;99.90
38380;DHT22;38377;47.418;18.882;2023-04-03T06:24:15;5.10;99.40
38380;DHT22;38377;47.418;18.882;2023-04-03T06:26:41;5.30;99.10
38380;DHT22;38377;47.418;18.882;2023-04-03T06:29:07;5.50;98.50
38380;DHT22;38377;47.418;18.882;2023-04-03T06:31:33;5.70;98.20
38380;DHT22;38377;47.418;18.882;2023-04-03T06:33:59;5.80;97.90
38380;DHT22;38377;47.418;18.882;2023-04-03T06:36:25;5.60;98.00
38380;DHT22;38377;47.418;18.882;2023-04-03T06:38:51;5.50;98.60
38380;DHT22;38377;47.418;18.882;2023-04-03T06:41:17;5.70;98.60
38380;DHT22;38377;47.418;18.882;2023-04-03T06:43:44;5.80;98.30
38380;DHT22;38377;47.418;18.882;2023-04-03T06:46:19;5.90;97.40
38380;DHT22;38377;47.418;18.882;2023-04-03T06:48:45;5.90;96.70
38380;DHT22;38377;47.418;18.882;2023-04-03T06:53:42;5.90;97.20
38380;DHT22;38377;47.418;18.882;2023-04-03T06:56:08;5.90;97.50
38380;DHT22;38377;47.418;18.882;2023-04-03T06:58:34;6.00;97.80
38380;DHT22;38377;47.418;18.882;2023-04-03T07:00:59;5.90;96.80
38380;DHT22;38377;47.418;18.882;2023-04-03T07:03:25;5.70;97.60
38380;DHT22;38377;47.418;18.882;2023-04-03T07:05:51;5.60;97.60
38380;DHT22;38377;47.418;18.882;2023-04-03T07:08:16;5.60;97.40
38380;DHT22;38377;47.418;18.882;2023-04-03T07:10:42;5.70;97.70
38380;DHT22;38377;47.418;18.882;2023-04-03T07:13:08;5.80;97.80
38380;DHT22;38377;47.418;18.882;2023-04-03T07:15:33;5.90;97.60
38380;DHT22;38377;47.418;18.882;2023-04-03T07:17:59;6.10;97.40
38380;DHT22;38377;47.418;18.882;2023-04-03T07:20:25;6.10;96.70
38380;DHT22;38377;47.418;18.882;2023-04-03T07:22:50;6.20;96.30
38380;DHT22;38377;47.418;18.882;2023-04-03T07:25:16;6.30;96.80
38380;DHT22;38377;47.418;18.882;2023-04-03T07:27:42;6.40;96.20
38380;DHT22;38377;47.418;18.882;2023-04-03T07:30:08;6.50;96.30
38380;DHT22;38377;47.418;18.882;2023-04-03T07:32:34;6.50;96.10
38380;DHT22;38377;47.418;18.882;2023-04-03T07:35:00;6.60;95.40
38380;DHT22;38377;47.418;18.882;2023-04-03T07:37:26;6.50;95.20
38380;DHT22;38377;47.418;18.882;2023-04-03T07:39:52;6.50;95.90
38380;DHT22;38377;47.418;18.882;2023-04-03T07:42:17;6.80;96.00
38380;DHT22;38377;47.418;18.882;2023-04-03T07:44:43;6.90;95.20
38380;DHT22;38377;47.418;18.882;2023-04-03T07:47:09;6.90;94.90
38380;DHT22;38377;47.418;18.882;2023-04-03T07:49:35;6.90;94.40
38380;DHT22;38377;47.418;18.882;2023-04-03T07:52:03;7.10;94.40
38380;DHT22;38377;47.418;18.882;2023-04-03T07:54:29;7.30;94.30
38380;DHT22;38377;47.418;18.882;2023-04-03T07:56:55;7.40;93.70
38380;DHT22;38377;47.418;18.882;2023-04-03T07:59:22;7.40;93.50
38380;DHT22;38377;47.418;18.882;2023-04-03T08:01:47;7.50;93.50
38380;DHT22;38377;47.418;18.882;2023-04-03T08:04:13;7.50;93.10
38380;DHT22;38377;47.418;18.882;2023-04-03T08:06:39;7.60;93.00
38380;DHT22;38377;47.418;18.882;2023-04-03T08:09:04;7.80;92.80
38380;DHT22;38377;47.418;18.882;2023-04-03T08:11:30;7.90;91.90
38380;DHT22;38377;47.418;18.882;2023-04-03T08:13:56;7.90;92.50
38380;DHT22;38377;47.418;18.882;2023-04-03T08:16:23;7.90;93.00
38380;DHT22;38377;47.418;18.882;2023-04-03T08:18:52;8.00;91.90
38380;DHT22;38377;47.418;18.882;2023-04-03T08:21:18;7.90;91.20
38380;DHT22;38377;47.418;18.882;2023-04-03T08:23:44;8.00;92.70
38380;DHT22;38377;47.418;18.882;2023-04-03T08:26:15;8.10;92.10
38380;DHT22;38377;47.418;18.882;2023-04-03T08:28:42;8.20;91.40
38380;DHT22;38377;47.418;18.882;2023-04-03T08:31:11;8.20;91.40
38380;DHT22;38377;47.418;18.882;2023-04-03T08:33:38;8.20;92.10
38380;DHT22;38377;47.418;18.882;2023-04-03T08:36:05;8.30;91.20
38380;DHT22;38377;47.418;18.882;2023-04-03T08:38:32;8.30;91.00
38380;DHT22;38377;47.418;18.882;2023-04-03T08:41:25;8.30;91.60
38380;DHT22;38377;47.418;18.882;2023-04-03T08:49:27;8.60;90.00
38380;DHT22;38377;47.418;18.882;2023-04-03T08:51:55;8.70;90.00
38380;DHT22;38377;47.418;18.882;2023-04-03T08:54:33;8.80;88.30
38380;DHT22;38377;47.418;18.882;2023-04-03T08:57:02;8.70;89.00
38380;DHT22;38377;47.418;18.882;2023-04-03T08:59:32;8.70;90.00
38380;DHT22;38377;47.418;18.882;2023-04-03T09:02:02;8.70;90.70
38380;DHT22;38377;47.418;18.882;2023-04-03T09:04:31;8.70;90.50
38380;DHT22;38377;47.418;18.882;2023-04-03T09:07:05;8.80;90.10
38380;DHT22;38377;47.418;18.882;2023-04-03T09:09:36;8.80;87.30
38380;DHT22;38377;47.418;18.882;2023-04-03T09:12:17;8.90;88.10
38380;DHT22;38377;47.418;18.882;2023-04-03T09:15:10;9.10;89.20
38380;DHT22;38377;47.418;18.882;2023-04-03T09:23:22;9.30;85.40
38380;DHT22;38377;47.418;18.882;2023-04-03T09:25:54;9.40;84.40
38380;DHT22;38377;47.418;18.882;2023-04-03T09:28:21;9.50;85.00
38380;DHT22;38377;47.418;18.882;2023-04-03T09:30:47;9.60;83.30
38380;DHT22;38377;47.418;18.882;2023-04-03T09:33:14;9.80;83.40
38380;DHT22;38377;47.418;18.882;2023-04-03T09:35:41;9.60;84.70
38380;DHT22;38377;47.418;18.882;2023-04-03T09:40:41;9.50;83.80
38380;DHT22;38377;47.418;18.882;2023-04-03T09:43:21;9.50;84.70
38380;DHT22;38377;47.418;18.882;2023-04-03T09:45:48;9.50;82.50
38380;DHT22;38377;47.418;18.882;2023-04-03T09:48:17;9.40;83.50
38380;DHT22;38377;47.418;18.882;2023-04-03T09:53:36;9.70;82.10
38380;DHT22;38377;47.418;18.882;2023-04-03T09:56:26;10.30;82.10
38380;DHT22;38377;47.418;18.882;2023-04-03T10:06:46;10.10;77.20
38380;DHT22;38377;47.418;18.882;2023-04-03T10:09:24;9.80;76.40
38380;DHT22;38377;47.418;18.882;2023-04-03T10:14:36;9.40;79.80
38380;DHT22;38377;47.418;18.882;2023-04-03T10:17:18;9.50;80.40
38380;DHT22;38377;47.418;18.882;2023-04-03T10:20:33;9.60;79.20
38380;DHT22;38377;47.418;18.882;2023-04-03T10:28:39;9.60;79.50
38380;DHT22;38377;47.418;18.882;2023-04-03T10:34:09;9.40;81.90
38380;DHT22;38377;47.418;18.882;2023-04-03T10:36:51;9.40;81.30
38380;DHT22;38377;47.418;18.882;2023-04-03T10:40:02;9.30;79.50
38380;DHT22;38377;47.418;18.882;2023-04-03T10:42:46;9.20;81.80
38380;DHT22;38377;47.418;18.882;2023-04-03T10:51:00;9.30;79.80
38380;DHT22;38377;47.418;18.882;2023-04-03T10:56:19;9.40;78.50
38380;DHT22;38377;47.418;18.882;2023-04-03T10:58:54;9.40;80.40
38380;DHT22;38377;47.418;18.882;2023-04-03T11:01:29;9.40;77.40
38380;DHT22;38377;47.418;18.882;2023-04-03T11:04:00;9.40;79.50
38380;DHT22;38377;47.418;18.882;2023-04-03T11:06:39;9.30;81.40
38380;DHT22;38377;47.418;18.882;2023-04-03T11:09:28;9.30;78.10
38380;DHT22;38377;47.418;18.882;2023-04-03T11:12:23;9.20;79.30
38380;DHT22;38377;47.418;18.882;2023-04-03T11:14:51;9.00;78.30
38380;DHT22;38377;47.418;18.882;2023-04-03T11:22:34;8.80;80.40
38380;DHT22;38377;47.418;18.882;2023-04-03T11:25:23;8.90;79.10
38380;DHT22;38377;47.418;18.882;2023-04-03T11:27:55;8.80;77.30
38380;DHT22;38377;47.418;18.882;2023-04-03T11:30:23;8.90;77.10
38380;DHT22;38377;47.418;18.882;2023-04-03T11:36:13;8.90;78.40
38380;DHT22;38377;47.418;18.882;2023-04-03T11:38:46;8.90;78.20
38380;DHT22;38377;47.418;18.882;2023-04-03T11:41:13;9.00;77.60
38380;DHT22;38377;47.418;18.882;2023-04-03T11:43:42;9.00;79.40
38380;DHT22;38377;47.418;18.882;2023-04-03T11:46:20;9.00;79.00
38380;DHT22;38377;47.418;18.882;2023-04-03T11:48:48;9.10;78.50
38380;DHT22;38377;47.418;18.882;2023-04-03T11:53:43;9.10;78.40
38380;DHT22;38377;47.418;18.882;2023-04-03T11:56:28;9.10;78.00
38380;DHT22;38377;47.418;18.882;2023-04-03T12:04:11;9.10;79.10
38380;DHT22;38377;47.418;18.882;2023-04-03T12:09:23;9.10;77.40
38380;DHT22;38377;47.418;18.882;2023-04-03T12:11:49;9.00;78.00
38380;DHT22;38377;47.418;18.882;2023-04-03T12:14:16;8.90;75.90
38380;DHT22;38377;47.418;18.882;2023-04-03T12:16:46;8.90;77.10
38380;DHT22;38377;47.418;18.882;2023-04-03T12:45:24;8.80;78.40
38380;DHT22;38377;47.418;18.882;2023-04-03T12:47:55;8.90;77.40
38380;DHT22;38377;47.418;18.882;2023-04-03T12:50:28;8.90;79.10
38380;DHT22;38377;47.418;18.882;2023-04-03T12:53:02;8.90;78.50
38380;DHT22;38377;47.418;18.882;2023-04-03T12:55:29;8.90;79.20
38380;DHT22;38377;47.418;18.882;2023-04-03T12:57:55;8.90;77.60
38380;DHT22;38377;47.418;18.882;2023-04-03T13:02:58;8.90;77.20
38380;DHT22;38377;47.418;18.882;2023-04-03T13:05:23;9.00;79.30
38380;DHT22;38377;47.418;18.882;2023-04-03T13:07:55;9.00;77.00
38380;DHT22;38377;47.418;18.882;2023-04-03T13:10:22;9.00;75.90
38380;DHT22;38377;47.418;18.882;2023-04-03T13:12:58;9.00;76.60
38380;DHT22;38377;47.418;18.882;2023-04-03T13:15:42;9.10;77.30
38380;DHT22;38377;47.418;18.882;2023-04-03T13:18:27;9.10;77.50
38380;DHT22;38377;47.418;18.882;2023-04-03T13:21:12;9.10;77.80
38380;DHT22;38377;47.418;18.882;2023-04-03T13:23:41;9.20;76.00
38380;DHT22;38377;47.418;18.882;2023-04-03T13:26:08;9.10;77.20
38380;DHT22;38377;47.418;18.882;2023-04-03T13:28:35;9.10;76.80
38380;DHT22;38377;47.418;18.882;2023-04-03T13:34:35;9.00;75.90
38380;DHT22;38377;47.418;18.882;2023-04-03T13:36:34;9.00;79.70
38380;DHT22;38377;47.418;18.882;2023-04-03T13:41:37;8.90;76.20
38380;DHT22;38377;47.418;18.882;2023-04-03T13:47:22;9.00;77.70
38380;DHT22;38377;47.418;18.882;2023-04-03T13:50:15;9.00;76.30
38380;DHT22;38377;47.418;18.882;2023-04-03T13:52:43;8.90;76.30
38380;DHT22;38377;47.418;18.882;2023-04-03T14:01:24;8.90;77.00
38380;DHT22;38377;47.418;18.882;2023-04-03T14:03:46;8.80;77.90
38380;DHT22;38377;47.418;18.882;2023-04-03T14:06:15;8.80;78.20
38380;DHT22;38377;47.418;18.882;2023-04-03T14:08:43;8.80;77.40
38380;DHT22;38377;47.418;18.882;2023-04-03T14:11:18;8.80;77.30
38380;DHT22;38377;47.418;18.882;2023-04-03T14:13:45;8.80;77.30
38380;DHT22;38377;47.418;18.882;2023-04-03T14:16:22;8.90;78.30
38380;DHT22;38377;47.418;18.882;2023-04-03T14:18:49;8.90;76.70
38380;DHT22;38377;47.418;18.882;2023-04-03T14:21:17;9.00;78.00
38380;DHT22;38377;47.418;18.882;2023-04-03T14:23:44;8.90;75.80
38380;DHT22;38377;47.418;18.882;2023-04-03T14:26:20;8.80;76.60
38380;DHT22;38377;47.418;18.882;2023-04-03T14:28:48;8.80;76.70
38380;DHT22;38377;47.418;18.882;2023-04-03T14:31:15;8.80;76.00
38380;DHT22;38377;47.418;18.882;2023-04-03T14:33:41;8.70;78.20
38380;DHT22;38377;47.418;18.882;2023-04-03T14:36:20;8.60;76.30
38380;DHT22;38377;47.418;18.882;2023-04-03T14:38:48;8.50;74.80
38380;DHT22;38377;47.418;18.882;2023-04-03T14:41:15;8.40;75.70
38380;DHT22;38377;47.418;18.882;2023-04-03T14:43:43;8.40;76.40
38380;DHT22;38377;47.418;18.882;2023-04-03T14:46:31;8.40;75.30
38380;DHT22;38377;47.418;18.882;2023-04-03T14:49:01;8.30;76.40
38380;DHT22;38377;47.418;18.882;2023-04-03T14:51:27;8.30;76.40
38380;DHT22;38377;47.418;18.882;2023-04-03T14:53:53;8.20;75.70
38380;DHT22;38377;47.418;18.882;2023-04-03T14:56:26;8.20;75.50
38380;DHT22;38377;47.418;18.882;2023-04-03T14:58:58;8.20;77.10
38380;DHT22;38377;47.418;18.882;2023-04-03T15:01:25;8.20;78.00
38380;DHT22;38377;47.418;18.882;2023-04-03T15:03:51;8.20;76.00
38380;DHT22;38377;47.418;18.882;2023-04-03T15:06:17;8.10;75.90
38380;DHT22;38377;47.418;18.882;2023-04-03T15:08:44;8.10;75.40
38380;DHT22;38377;47.418;18.882;2023-04-03T15:11:11;8.10;74.90
38380;DHT22;38377;47.418;18.882;2023-04-03T15:13:38;8.00;74.40
38380;DHT22;38377;47.418;18.882;2023-04-03T15:16:05;7.90;74.80
38380;DHT22;38377;47.418;18.882;2023-04-03T15:18:35;7.90;75.30
38380;DHT22;38377;47.418;18.882;2023-04-03T15:21:03;7.90;75.70
38380;DHT22;38377;47.418;18.882;2023-04-03T15:23:29;7.80;75.10
38380;DHT22;38377;47.418;18.882;2023-04-03T15:25:55;7.80;75.70
38380;DHT22;38377;47.418;18.882;2023-04-03T15:30:53;7.80;77.60
38380;DHT22;38377;47.418;18.882;2023-04-03T15:33:19;7.80;77.10
38380;DHT22;38377;47.418;18.882;2023-04-03T15:35:44;7.80;76.30
38380;DHT22;38377;47.418;18.882;2023-04-03T15:38:10;7.80;74.60
38380;DHT22;38377;47.418;18.882;2023-04-03T15:40:36;7.80;75.00
38380;DHT22;38377;47.418;18.882;2023-04-03T15:43:02;7.80;74.30
38380;DHT22;38377;47.418;18.882;2023-04-03T15:45:29;7.80;75.50
38380;DHT22;38377;47.418;18.882;2023-04-03T15:47:56;7.70;74.40
38380;DHT22;38377;47.418;18.882;2023-04-03T15:50:22;7.70;73.10
38380;DHT22;38377;47.418;18.882;2023-04-03T15:52:50;7.60;72.40
38380;DHT22;38377;47.418;18.882;2023-04-03T15:55:23;7.60;72.60
38380;DHT22;38377;47.418;18.882;2023-04-03T15:57:49;7.60;73.40
38380;DHT22;38377;47.418;18.882;2023-04-03T16:00:15;7.50;72.90
38380;DHT22;38377;47.418;18.882;2023-04-03T16:02:42;7.50;73.60
38380;DHT22;38377;47.418;18.882;2023-04-03T16:05:09;7.50;73.30
38380;DHT22;38377;47.418;18.882;2023-04-03T16:07:38;7.40;74.30
38380;DHT22;38377;47.418;18.882;2023-04-03T16:10:05;7.40;73.00
38380;DHT22;38377;47.418;18.882;2023-04-03T16:12:31;7.40;74.10
38380;DHT22;38377;47.418;18.882;2023-04-03T16:14:57;7.40;75.30
38380;DHT22;38377;47.418;18.882;2023-04-03T16:17:22;7.30;72.80
38380;DHT22;38377;47.418;18.882;2023-04-03T16:19:48;7.30;73.00
38380;DHT22;38377;47.418;18.882;2023-04-03T16:22:14;7.20;75.10
38380;DHT22;38377;47.418;18.882;2023-04-03T16:24:40;7.20;72.60
38380;DHT22;38377;47.418;18.882;2023-04-03T16:27:06;7.20;72.60
38380;DHT22;38377;47.418;18.882;2023-04-03T16:29:31;7.10;73.10
38380;DHT22;38377;47.418;18.882;2023-04-03T16:31:58;7.10;73.50
38380;DHT22;38377;47.418;18.882;2023-04-03T16:34:24;7.00;71.90
38380;DHT22;38377;47.418;18.882;2023-04-03T16:36:51;7.00;73.20
38380;DHT22;38377;47.418;18.882;2023-04-03T16:39:20;7.00;72.50
38380;DHT22;38377;47.418;18.882;2023-04-03T16:41:46;6.90;71.90
38380;DHT22;38377;47.418;18.882;2023-04-03T16:44:11;6.90;73.10
38380;DHT22;38377;47.418;18.882;2023-04-03T16:46:37;6.90;73.20
38380;DHT22;38377;47.418;18.882;2023-04-03T16:49:03;6.80;72.80
38380;DHT22;38377;47.418;18.882;2023-04-03T16:51:29;6.90;72.40
38380;DHT22;38377;47.418;18.882;2023-04-03T16:53:55;6.80;74.10
38380;DHT22;38377;47.418;18.882;2023-04-03T16:56:21;6.80;74.30
38380;DHT22;38377;47.418;18.882;2023-04-03T16:58:47;6.80;73.90
38380;DHT22;38377;47.418;18.882;2023-04-03T17:01:15;6.80;71.80
38380;DHT22;38377;47.418;18.882;2023-04-03T17:03:41;6.80;73.60
38380;DHT22;38377;47.418;18.882;2023-04-03T17:06:07;6.70;73.40
38380;DHT22;38377;47.418;18.882;2023-04-03T17:08:44;6.70;74.10
38380;DHT22;38377;47.418;18.882;2023-04-03T17:11:11;6.70;73.10
38380;DHT22;38377;47.418;18.882;2023-04-03T17:13:37;6.70;73.20
38380;DHT22;38377;47.418;18.882;2023-04-03T17:16:05;6.70;73.70
38380;DHT22;38377;47.418;18.882;2023-04-03T17:18:31;6.70;74.50
38380;DHT22;38377;47.418;18.882;2023-04-03T17:21:01;6.70;74.70
38380;DHT22;38377;47.418;18.882;2023-04-03T17:23:30;6.70;76.00
38380;DHT22;38377;47.418;18.882;2023-04-03T17:25:56;6.70;76.30
38380;DHT22;38377;47.418;18.882;2023-04-03T17:28:22;6.70;75.70
38380;DHT22;38377;47.418;18.882;2023-04-03T17:30:59;6.80;75.10
38380;DHT22;38377;47.418;18.882;2023-04-03T17:33:25;6.80;75.50
38380;DHT22;38377;47.418;18.882;2023-04-03T17:35:56;6.80;75.30
38380;DHT22;38377;47.418;18.882;2023-04-03T17:38:22;6.80;75.60
38380;DHT22;38377;47.418;18.882;2023-04-03T17:40:50;6.80;74.60
38380;DHT22;38377;47.418;18.882;2023-04-03T17:43:16;6.80;73.60